createdAt,value
2022-10-09T00:00:08.164Z,91.42
2022-10-09T00:01:08.080Z,91.19
2022-10-09T00:02:08.130Z,91.24
2022-10-09T00:03:07.913Z,91.33
2022-10-09T00:04:07.830Z,91.99
2022-10-09T00:05:07.793Z,92.37
2022-10-09T00:06:07.685Z,91.99
2022-10-09T00:07:07.582Z,91.80
2022-10-09T00:08:07.495Z,91.80
2022-10-09T00:09:07.411Z,91.99
2022-10-09T00:10:07.336Z,91.99
2022-10-09T00:11:07.243Z,91.80
2022-10-09T00:12:07.163Z,91.42
2022-10-09T00:13:07.078Z,91.24
2022-10-09T00:14:06.996Z,91.33
2022-10-09T00:15:06.922Z,91.99
2022-10-09T00:16:06.830Z,91.71
2022-10-09T00:17:08.300Z,91.80
2022-10-09T00:18:06.661Z,91.99
2022-10-09T00:19:06.578Z,90.85
2022-10-09T00:20:06.495Z,90.38
2022-10-09T00:21:06.411Z,90.38
2022-10-09T00:22:06.347Z,90.19
2022-10-09T00:23:06.247Z,90.38
2022-10-09T00:24:06.161Z,90.38
2022-10-09T00:25:06.074Z,90.38
2022-10-09T00:26:05.993Z,90.28
2022-10-09T00:27:05.908Z,90.28
2022-10-09T00:28:05.949Z,90.38
2022-10-09T00:29:05.743Z,89.81
2022-10-09T00:30:05.810Z,90.00
2022-10-09T00:31:05.666Z,89.53
2022-10-09T00:32:05.491Z,89.33
2022-10-09T00:33:05.406Z,89.43
2022-10-09T00:34:05.323Z,89.43
2022-10-09T00:35:05.240Z,88.95
2022-10-09T00:36:05.156Z,88.76
2022-10-09T00:37:05.073Z,88.67
2022-10-09T00:38:05.005Z,89.05
2022-10-09T00:39:04.903Z,88.76
2022-10-09T00:40:04.822Z,88.67
2022-10-09T00:41:04.741Z,88.39
2022-10-09T00:42:04.709Z,88.67
2022-10-09T00:43:04.575Z,88.76
2022-10-09T00:44:04.739Z,88.29
2022-10-09T00:45:04.410Z,88.20
2022-10-09T00:46:04.362Z,88.48
2022-10-09T00:47:04.235Z,88.10
2022-10-09T00:48:04.152Z,88.10
2022-10-09T00:49:04.067Z,88.10
2022-10-09T00:50:03.985Z,88.67
2022-10-09T00:51:03.900Z,88.20
2022-10-09T00:52:03.816Z,88.10
2022-10-09T00:53:03.734Z,88.29
2022-10-09T00:54:03.669Z,88.67
2022-10-09T00:55:03.570Z,88.29
2022-10-09T00:56:03.482Z,88.76
2022-10-09T00:57:03.399Z,88.67
2022-10-09T00:58:03.315Z,88.48
2022-10-09T00:59:03.231Z,88.86
2022-10-09T01:00:03.148Z,88.76
2022-10-09T01:01:03.132Z,88.67
2022-10-09T01:02:03.121Z,88.29
2022-10-09T01:03:02.895Z,88.57
2022-10-09T01:04:02.813Z,88.57
2022-10-09T01:05:02.726Z,88.48
2022-10-09T01:06:02.645Z,88.39
2022-10-09T01:07:02.562Z,88.67
2022-10-09T01:08:02.477Z,89.14
2022-10-09T01:09:02.394Z,88.76
2022-10-09T01:16:23.520Z,88.57
2022-10-09T01:17:19.149Z,88.39
2022-10-09T01:18:19.065Z,88.76
2022-10-09T02:51:15.974Z,86.35
2022-10-09T02:55:06.090Z,85.87
2022-10-09T02:56:05.562Z,86.07
2022-10-09T02:57:05.728Z,85.97
2022-10-09T03:00:47.732Z,85.59
2022-10-09T03:09:39.375Z,85.30
2022-10-09T03:10:39.471Z,85.02
2022-10-09T03:11:39.183Z,84.92
2022-10-09T03:12:39.297Z,84.92
2022-10-09T03:13:39.016Z,85.02
2022-10-09T03:14:38.930Z,84.92
2022-10-09T03:15:38.946Z,84.74
2022-10-09T03:16:38.911Z,84.74
2022-10-09T03:17:38.676Z,84.92
2022-10-09T03:18:39.803Z,84.64
2022-10-09T03:19:38.507Z,84.55
2022-10-09T03:20:38.421Z,84.55
2022-10-09T03:21:38.340Z,84.74
2022-10-09T03:22:38.254Z,84.45
2022-10-09T03:23:38.170Z,84.26
2022-10-09T03:24:38.082Z,84.26
2022-10-09T03:25:38.027Z,84.45
2022-10-09T03:26:37.914Z,85.21
2022-10-09T03:27:37.831Z,85.11
2022-10-09T03:28:37.827Z,84.83
2022-10-09T03:29:37.664Z,85.11
2022-10-09T03:30:37.578Z,84.98
2022-10-09T03:31:51.960Z,85.49
2022-10-09T03:32:37.407Z,85.26
2022-10-09T03:33:37.323Z,85.36
2022-10-09T03:34:37.239Z,85.45
2022-10-09T03:35:37.157Z,84.88
2022-10-09T03:36:37.067Z,85.07
2022-10-09T03:37:36.985Z,84.98
2022-10-09T03:38:36.902Z,85.17
2022-10-09T03:39:36.816Z,85.36
2022-10-09T03:40:36.731Z,85.36
2022-10-09T03:41:36.672Z,85.36
2022-10-09T03:42:36.562Z,85.36
2022-10-09T03:43:36.478Z,85.36
2022-10-09T03:44:36.393Z,85.36
2022-10-09T03:45:36.310Z,85.26
2022-10-09T03:46:36.322Z,85.64
2022-10-09T03:47:36.144Z,85.36
2022-10-09T03:48:36.054Z,85.45
2022-10-09T03:49:35.988Z,85.07
2022-10-09T03:50:35.936Z,85.26
2022-10-09T03:51:35.801Z,85.07
2022-10-09T03:52:35.722Z,85.26
2022-10-09T03:53:35.973Z,85.07
2022-10-09T03:54:35.749Z,85.17
2022-10-09T03:55:35.464Z,85.17
2022-10-09T03:56:35.377Z,85.55
2022-10-09T03:57:35.314Z,85.17
2022-10-09T03:58:35.209Z,85.17
2022-10-09T03:59:35.125Z,85.26
2022-10-09T04:00:35.074Z,85.07
2022-10-09T04:01:34.955Z,85.17
2022-10-09T04:02:34.951Z,84.69
2022-10-09T04:03:34.786Z,84.78
2022-10-09T04:04:34.701Z,85.17
2022-10-09T04:05:34.617Z,84.41
2022-10-09T04:06:34.534Z,84.69
2022-10-09T04:07:34.449Z,84.31
2022-10-09T04:08:34.360Z,84.41
2022-10-09T04:09:34.279Z,84.69
2022-10-09T04:10:34.193Z,84.78
2022-10-09T04:11:34.114Z,84.59
2022-10-09T04:12:34.023Z,84.50
2022-10-09T04:13:33.957Z,84.59
2022-10-09T04:14:33.854Z,84.41
2022-10-09T04:15:33.770Z,84.59
2022-10-09T04:16:33.760Z,84.59
2022-10-09T04:17:33.600Z,84.59
2022-10-09T04:18:33.516Z,84.88
2022-10-09T04:19:33.429Z,84.50
2022-10-09T04:20:33.343Z,84.88
2022-10-09T04:21:33.265Z,84.69
2022-10-09T04:22:33.174Z,84.31
2022-10-09T04:23:33.092Z,84.12
2022-10-09T04:24:33.005Z,83.55
2022-10-09T04:25:32.923Z,83.84
2022-10-09T04:26:32.837Z,83.84
2022-10-09T04:27:32.751Z,83.94
2022-10-09T04:28:32.805Z,84.03
2022-10-09T04:29:32.601Z,84.22
2022-10-09T04:30:32.497Z,83.65
2022-10-09T04:31:32.474Z,83.84
2022-10-09T04:32:32.327Z,83.84
2022-10-09T04:34:32.158Z,83.94
2022-10-09T04:35:32.072Z,83.65
2022-10-09T04:36:31.988Z,83.65
2022-10-09T04:37:31.902Z,83.65
2022-10-09T04:38:31.818Z,83.74
2022-10-09T04:39:31.734Z,83.55
2022-10-09T04:40:31.654Z,83.94
2022-10-09T04:41:34.769Z,83.74
2022-10-09T04:42:31.481Z,83.46
2022-10-09T04:43:31.693Z,83.94
2022-10-09T04:44:31.308Z,83.84
2022-10-09T04:45:31.425Z,83.84
2022-10-09T04:46:31.140Z,84.31
2022-10-09T04:47:31.055Z,84.69
2022-10-09T04:48:30.973Z,84.55
2022-10-09T04:49:30.884Z,84.22
2022-10-09T04:50:30.802Z,84.31
2022-10-09T04:51:30.713Z,84.22
2022-10-09T04:52:30.631Z,84.22
2022-10-09T04:53:30.544Z,84.31
2022-10-09T04:54:30.460Z,84.41
2022-10-09T04:55:30.374Z,84.50
2022-10-09T04:56:30.288Z,84.36
2022-10-09T04:57:30.207Z,84.65
2022-10-09T04:58:30.225Z,84.36
2022-10-09T04:59:30.035Z,84.27
2022-10-09T05:00:29.952Z,84.46
2022-10-09T05:01:33.096Z,85.13
2022-10-09T05:02:29.813Z,84.65
2022-10-09T05:03:29.846Z,84.84
2022-10-09T05:04:29.635Z,84.94
2022-10-09T05:05:29.525Z,84.55
2022-10-09T05:06:29.441Z,84.46
2022-10-09T05:07:29.362Z,84.50
2022-10-09T05:08:29.269Z,84.65
2022-10-09T05:09:29.187Z,84.46
2022-10-09T05:10:29.102Z,84.46
2022-10-09T05:11:29.024Z,85.13
2022-10-09T05:12:28.931Z,84.74
2022-10-09T05:13:28.844Z,84.55
2022-10-09T05:14:28.762Z,84.17
2022-10-09T05:15:28.674Z,84.55
2022-10-09T05:16:28.665Z,84.55
2022-10-09T05:17:28.577Z,84.17
2022-10-09T05:18:28.418Z,83.98
2022-10-09T05:19:28.334Z,84.08
2022-10-09T05:20:28.250Z,83.61
2022-10-09T05:21:28.165Z,82.85
2022-10-09T05:22:28.078Z,83.80
2022-10-09T05:23:28.196Z,83.32
2022-10-09T05:24:27.906Z,83.23
2022-10-09T05:25:27.821Z,82.98
2022-10-09T05:26:27.742Z,82.85
2022-10-09T05:27:27.650Z,83.13
2022-10-09T05:28:27.634Z,83.32
2022-10-09T05:29:27.478Z,83.36
2022-10-09T05:30:27.399Z,83.17
2022-10-09T05:31:27.460Z,83.13
2022-10-09T05:32:27.225Z,83.27
2022-10-09T05:33:27.159Z,82.98
2022-10-09T05:34:27.056Z,82.98
2022-10-09T05:35:26.969Z,82.75
2022-10-09T05:36:26.883Z,83.46
2022-10-09T05:37:26.796Z,83.27
2022-10-09T05:38:26.716Z,82.37
2022-10-09T05:39:26.629Z,82.28
2022-10-09T05:40:29.238Z,81.90
2022-10-09T05:41:26.458Z,81.71
2022-10-09T05:42:26.373Z,81.14
2022-10-09T05:43:26.287Z,80.29
2022-10-09T05:44:26.203Z,80.48
2022-10-09T05:45:26.117Z,80.29
2022-10-09T05:46:26.032Z,80.29
2022-10-09T05:47:25.950Z,79.91
2022-10-09T05:48:25.869Z,80.19
2022-10-09T05:49:25.796Z,79.82
2022-10-09T05:50:25.691Z,79.44
2022-10-09T05:51:25.606Z,79.72
2022-10-09T05:52:25.519Z,79.82
2022-10-09T05:53:25.433Z,79.91
2022-10-09T05:54:25.351Z,79.91
2022-10-09T05:55:25.265Z,79.44
2022-10-09T05:56:25.179Z,79.34
2022-10-09T05:57:25.094Z,79.63
2022-10-09T05:58:25.010Z,80.19
2022-10-09T05:59:24.924Z,79.82
2022-10-09T06:00:24.836Z,80.10
2022-10-09T06:01:24.841Z,80.10
2022-10-09T06:02:24.767Z,80.29
2022-10-09T06:03:24.580Z,80.38
2022-10-09T06:04:24.498Z,80.76
2022-10-09T06:05:24.428Z,80.86
2022-10-09T06:06:24.329Z,80.48
2022-10-09T06:07:24.252Z,81.52
2022-10-09T06:08:24.154Z,81.24
2022-10-09T06:09:24.091Z,80.86
2022-10-09T06:10:23.986Z,80.67
2022-10-09T06:11:23.900Z,80.67
2022-10-09T06:12:23.817Z,80.95
2022-10-09T06:13:23.730Z,81.71
2022-10-09T06:14:23.646Z,81.52
2022-10-09T06:15:23.557Z,81.24
2022-10-09T06:16:23.538Z,81.43
2022-10-09T06:17:23.387Z,81.52
2022-10-09T06:18:23.304Z,81.52
2022-10-09T06:19:23.220Z,81.81
2022-10-09T06:20:23.133Z,81.62
2022-10-09T06:21:23.067Z,81.62
2022-10-09T06:22:22.963Z,81.66
2022-10-09T06:23:22.876Z,81.62
2022-10-09T06:24:27.358Z,81.56
2022-10-09T06:25:22.706Z,81.18
2022-10-09T06:26:22.621Z,81.85
2022-10-09T06:27:22.534Z,81.85
2022-10-09T06:28:22.498Z,81.94
2022-10-09T06:29:22.364Z,82.42
2022-10-09T06:30:22.281Z,83.27
2022-10-09T06:31:22.255Z,83.46
2022-10-09T06:32:22.109Z,83.74
2022-10-09T06:33:22.037Z,83.08
2022-10-09T06:34:21.941Z,82.98
2022-10-09T06:35:21.856Z,83.17
2022-10-09T06:36:21.771Z,83.17
2022-10-09T06:37:21.702Z,82.89
2022-10-09T06:38:21.601Z,82.60
2022-10-09T06:39:21.514Z,79.61
2022-10-09T06:40:21.429Z,77.94
2022-10-09T06:41:21.345Z,76.42
2022-10-09T06:42:21.263Z,76.23
2022-10-09T06:43:21.174Z,75.85
2022-10-09T06:44:21.090Z,75.76
2022-10-09T06:45:21.019Z,75.28
2022-10-09T06:46:21.013Z,75.38
2022-10-09T07:17:51.822Z,99.99
2022-10-09T07:18:51.722Z,99.99
2022-10-09T07:19:51.642Z,99.99
2022-10-09T07:20:51.553Z,99.99
2022-10-09T07:21:52.687Z,99.99
2022-10-09T07:22:51.712Z,99.99
2022-10-09T07:23:51.307Z,99.99
2022-10-09T07:24:51.229Z,99.99
2022-10-09T07:25:51.491Z,99.99
2022-10-09T07:26:51.058Z,99.99
2022-10-09T07:27:50.980Z,99.99
2022-10-09T07:28:50.994Z,99.99
2022-10-09T07:29:50.814Z,99.99
2022-10-09T07:30:50.808Z,99.99
2022-10-09T07:31:50.645Z,99.99
2022-10-09T07:32:51.062Z,99.99
2022-10-09T07:48:48.179Z,99.99
2022-10-09T07:49:48.887Z,99.99
2022-10-09T07:50:47.994Z,99.99
2022-10-09T07:51:50.545Z,99.99
2022-10-09T07:52:48.707Z,99.99
2022-10-09T07:53:47.750Z,99.99
2022-10-09T07:54:47.669Z,99.99
2022-10-09T07:55:47.583Z,99.99
2022-10-09T07:56:47.503Z,99.99
2022-10-09T07:57:47.421Z,99.99
2022-10-09T07:58:50.570Z,99.99
2022-10-09T07:59:47.257Z,99.99
2022-10-09T08:00:47.175Z,99.99
2022-10-09T08:01:47.136Z,99.99
2022-10-09T08:02:47.390Z,99.99
2022-10-09T08:04:34.434Z,99.99
2022-10-09T08:05:34.333Z,99.99
2022-10-09T08:06:34.253Z,99.99
2022-10-09T08:07:35.109Z,99.99
2022-10-09T08:08:34.091Z,99.99
2022-10-09T08:09:34.007Z,99.99
2022-10-09T08:10:33.928Z,99.99
2022-10-09T08:11:33.844Z,99.99
2022-10-09T08:12:33.765Z,99.99
2022-10-09T08:13:33.682Z,99.99
2022-10-09T08:14:33.600Z,99.99
2022-10-09T08:15:33.601Z,99.99
2022-10-09T08:16:33.448Z,99.99
2022-10-09T08:17:33.358Z,99.99
2022-10-09T08:18:33.276Z,99.99
2022-10-09T08:19:33.198Z,99.99
2022-10-09T08:20:33.385Z,99.99
2022-10-09T08:21:33.236Z,99.99
2022-10-09T08:22:32.958Z,99.99
2022-10-09T08:23:32.872Z,99.99
2022-10-09T08:24:32.791Z,99.99
2022-10-09T08:25:32.711Z,99.99
2022-10-09T08:26:33.842Z,99.99
2022-10-09T08:28:25.974Z,99.99
2022-10-09T08:30:50.866Z,99.99
2022-10-09T08:31:50.713Z,99.99
2022-10-09T08:32:51.189Z,99.99
2022-10-09T08:33:50.545Z,99.99
2022-10-09T08:34:50.497Z,99.99
2022-10-09T08:35:50.646Z,99.99
2022-10-09T08:36:50.504Z,99.99
2022-10-09T08:37:50.220Z,99.99
2022-10-09T08:38:50.139Z,99.99
2022-10-09T08:39:50.096Z,99.99
2022-10-09T08:40:50.023Z,99.99
2022-10-09T08:41:49.897Z,99.99
2022-10-09T08:42:50.386Z,99.99
2022-10-09T08:43:49.739Z,99.99
2022-10-09T08:44:49.659Z,99.99
2022-10-09T08:45:49.576Z,99.99
2022-10-09T08:46:49.581Z,99.99
2022-10-09T08:47:49.449Z,99.99
2022-10-09T08:48:49.377Z,99.99
2022-10-09T08:49:49.260Z,99.99
2022-10-09T08:50:49.210Z,99.99
2022-10-09T08:51:49.154Z,99.99
2022-10-09T08:52:50.117Z,99.99
2022-10-09T08:53:48.970Z,99.99
2022-10-09T08:54:48.854Z,99.99
2022-10-09T08:55:48.775Z,99.99
2022-10-09T08:56:48.697Z,99.99
2022-10-09T08:57:48.646Z,99.99
2022-10-09T08:58:48.572Z,99.99
2022-10-09T08:59:48.487Z,99.99
2022-10-09T09:01:48.376Z,99.99
2022-10-09T09:02:48.526Z,99.99
2022-10-09T09:03:48.134Z,99.99
2022-10-09T09:04:52.404Z,99.99
2022-10-09T09:05:47.975Z,99.99
2022-10-09T09:06:47.895Z,99.99
2022-10-09T09:07:47.832Z,99.99
2022-10-09T09:08:47.737Z,99.99
2022-10-09T09:09:47.655Z,99.99
2022-10-09T09:10:47.574Z,99.99
2022-10-09T09:11:47.499Z,99.99
2022-10-09T09:12:47.640Z,99.99
2022-10-09T09:13:47.337Z,99.99
2022-10-09T09:14:47.259Z,99.99
2022-10-09T09:15:47.235Z,99.99
2022-10-09T09:16:47.095Z,99.99
2022-10-09T09:17:47.015Z,99.99
2022-10-09T09:18:46.937Z,99.99
2022-10-09T09:19:46.866Z,99.99
2022-10-09T09:20:46.779Z,99.99
2022-10-09T09:21:46.700Z,99.99
2022-10-09T09:22:47.045Z,99.99
2022-10-09T09:23:46.561Z,99.99
2022-10-09T09:24:46.459Z,99.99
2022-10-09T09:25:46.382Z,99.99
2022-10-09T09:26:46.302Z,99.99
2022-10-09T09:27:46.228Z,99.99
2022-10-09T09:28:46.208Z,99.99
2022-10-09T09:29:46.066Z,99.99
2022-10-09T09:30:45.986Z,99.99
2022-10-09T09:31:46.047Z,99.99
2022-10-09T09:32:46.083Z,99.99
2022-10-09T09:33:45.749Z,99.99
2022-10-09T09:34:45.667Z,99.99
2022-10-09T09:35:45.588Z,99.99
2022-10-09T09:36:45.512Z,99.99
2022-10-09T09:37:45.479Z,99.99
2022-10-09T09:39:24.940Z,99.99
2022-10-09T09:40:47.335Z,99.99
2022-10-09T09:41:45.115Z,99.99
2022-10-09T09:42:45.036Z,99.99
2022-10-09T09:43:44.958Z,99.99
2022-10-09T09:44:44.880Z,99.99
2022-10-09T09:45:44.801Z,99.99
2022-10-09T09:46:44.776Z,99.99
2022-10-09T09:47:44.642Z,99.99
2022-10-09T09:48:44.563Z,99.99
2022-10-09T09:49:44.490Z,98.90
2022-10-09T09:50:56.440Z,99.24
2022-10-09T09:51:44.329Z,99.99
2022-10-09T09:52:44.249Z,99.99
2022-10-09T09:53:44.170Z,99.99
2022-10-09T09:54:44.090Z,99.99
2022-10-09T09:55:44.031Z,97.90
2022-10-09T09:57:43.854Z,99.24
2022-10-09T09:58:43.776Z,98.75
2022-10-09T09:59:43.699Z,98.95
2022-10-09T10:00:43.642Z,97.99
2022-10-09T10:01:43.586Z,98.47
2022-10-09T10:02:43.459Z,99.99
2022-10-09T10:03:43.382Z,99.99
2022-10-09T10:04:43.392Z,99.52
2022-10-09T10:05:43.226Z,99.24
2022-10-09T10:06:43.144Z,97.61
2022-10-09T10:07:43.069Z,98.28
2022-10-09T10:08:42.990Z,97.23
2022-10-09T10:09:42.909Z,97.42
2022-10-09T10:10:42.831Z,99.90
2022-10-09T10:11:42.773Z,97.47
2022-10-09T10:12:42.673Z,96.08
2022-10-09T10:13:42.596Z,97.80
2022-10-09T10:14:42.517Z,99.10
2022-10-09T10:15:42.441Z,95.70
2022-10-09T10:16:42.358Z,95.61
2022-10-09T10:17:42.283Z,97.52
2022-10-09T10:18:42.353Z,96.18
2022-10-09T10:19:42.131Z,95.36
2022-10-09T10:20:42.198Z,95.17
2022-10-09T10:21:41.970Z,94.79
2022-10-09T10:22:41.896Z,95.84
2022-10-09T10:23:41.816Z,96.80
2022-10-09T10:24:41.741Z,96.32
2022-10-09T10:25:41.655Z,96.32
2022-10-09T10:26:41.580Z,95.84
2022-10-09T10:27:41.518Z,97.37
2022-10-09T10:28:41.476Z,96.61
2022-10-09T10:29:41.346Z,95.89
2022-10-09T10:30:41.265Z,96.66
2022-10-09T10:31:41.210Z,95.51
2022-10-09T10:32:41.110Z,93.98
2022-10-09T10:33:41.034Z,93.40
2022-10-09T10:34:40.953Z,94.21
2022-10-09T10:38:06.519Z,94.26
2022-10-09T10:39:06.439Z,93.98
2022-10-09T10:40:06.362Z,93.02
2022-10-09T10:41:06.336Z,91.77
2022-10-09T11:56:59.586Z,69.95
2022-10-09T11:57:59.464Z,69.47
2022-10-09T11:58:59.395Z,69.31
2022-10-09T11:59:59.318Z,68.32
2022-10-09T12:03:24.958Z,67.23
2022-10-09T12:04:37.695Z,68.93
2022-10-09T12:05:24.814Z,68.91
2022-10-09T12:06:24.744Z,64.59
2022-10-09T12:07:24.747Z,65.30
2022-10-09T12:08:24.611Z,67.07
2022-10-09T12:09:24.538Z,67.36
2022-10-09T12:10:24.468Z,67.58
2022-10-09T12:11:25.412Z,65.85
2022-10-09T12:12:24.712Z,65.85
2022-10-09T12:13:24.465Z,65.47
2022-10-09T12:14:24.200Z,65.56
2022-10-09T12:15:24.132Z,64.43
2022-10-09T12:16:24.356Z,63.34
2022-10-09T12:17:23.998Z,63.34
2022-10-09T12:18:23.925Z,63.47
2022-10-09T12:19:23.862Z,64.66
2022-10-09T12:20:26.577Z,64.43
2022-10-09T12:21:23.726Z,63.05
2022-10-09T12:22:23.659Z,61.89
2022-10-09T12:23:27.955Z,62.05
2022-10-09T12:24:23.535Z,59.28
2022-10-09T12:25:23.464Z,60.19
2022-10-09T12:26:24.815Z,61.83
2022-10-09T12:27:23.330Z,61.68
2022-10-09T12:28:23.318Z,63.76
2022-10-09T12:29:23.199Z,66.01
2022-10-09T12:30:23.133Z,67.58
2022-10-09T12:31:23.119Z,65.78
2022-10-09T12:32:23.052Z,64.21
2022-10-09T12:33:22.936Z,64.05
2022-10-09T12:45:49.660Z,59.90
2022-10-09T12:46:49.398Z,61.90
2022-10-09T12:47:49.343Z,62.48
2022-10-09T12:48:49.317Z,61.96
2022-10-09T12:49:49.204Z,63.06
2022-10-09T12:50:49.143Z,61.83
2022-10-09T12:51:51.354Z,61.64
2022-10-09T12:52:50.133Z,62.66
2022-10-09T12:53:48.962Z,61.63
2022-10-09T12:54:48.881Z,60.57
2022-10-09T12:55:48.816Z,60.67
2022-10-09T12:56:48.755Z,62.31
2022-10-09T12:57:48.713Z,60.38
2022-10-09T12:58:48.628Z,61.02
2022-10-09T12:59:48.562Z,61.44
2022-10-09T13:00:48.493Z,62.05
2022-10-09T13:01:48.686Z,61.66
2022-10-09T13:02:48.959Z,60.09
2022-10-09T13:03:48.303Z,59.92
2022-10-09T13:04:48.236Z,59.67
2022-10-09T13:05:48.178Z,60.64
2022-10-09T13:06:48.110Z,61.60
2022-10-09T13:07:48.561Z,60.93
2022-10-09T13:08:47.983Z,60.54
2022-10-09T13:09:47.920Z,61.31
2022-10-09T13:10:47.858Z,61.92
2022-10-09T13:11:47.794Z,62.76
2022-10-09T13:12:48.080Z,59.89
2022-10-09T13:13:47.665Z,59.50
2022-10-09T13:14:47.601Z,59.82
2022-10-09T13:15:47.619Z,59.28
2022-10-09T13:16:47.654Z,60.16
2022-10-09T13:17:47.872Z,61.02
2022-10-09T13:18:47.347Z,62.95
2022-10-09T13:19:47.288Z,63.18
2022-10-09T13:20:47.220Z,61.89
2022-10-09T13:21:47.160Z,62.37
2022-10-09T13:22:47.358Z,62.54
2022-10-09T13:23:47.032Z,63.34
2022-10-09T13:24:47.071Z,64.82
2022-10-09T13:25:46.905Z,65.34
2022-10-09T13:26:46.941Z,64.86
2022-10-09T13:27:47.163Z,64.37
2022-10-09T13:28:46.783Z,66.82
2022-10-09T13:29:46.654Z,66.08
2022-10-09T13:30:46.619Z,65.78
2022-10-09T13:31:46.521Z,64.89
2022-10-09T13:32:46.458Z,64.66
2022-10-09T13:33:46.415Z,66.07
2022-10-09T13:34:46.327Z,68.54
2022-10-09T13:35:46.268Z,68.70
2022-10-09T13:36:46.198Z,68.80
2022-10-09T13:37:46.166Z,69.51
2022-10-09T13:38:46.068Z,69.70
2022-10-09T13:39:46.009Z,69.73
2022-10-09T13:40:45.935Z,69.35
2022-10-09T13:41:45.870Z,69.06
2022-10-09T13:42:45.805Z,68.32
2022-10-09T13:43:45.741Z,69.92
2022-10-09T13:44:45.671Z,71.14
2022-10-09T13:45:45.682Z,72.48
2022-10-09T13:46:45.541Z,74.08
2022-10-09T13:47:45.474Z,75.32
2022-10-09T13:48:45.407Z,76.15
2022-10-09T13:49:45.356Z,75.92
2022-10-09T13:50:45.271Z,77.65
2022-10-09T13:54:36.492Z,78.86
2022-10-09T13:58:14.905Z,79.44
2022-10-09T14:00:11.397Z,80.11
2022-10-09T14:01:11.775Z,80.40
2022-10-09T14:02:11.190Z,80.68
2022-10-09T14:03:11.156Z,82.70
2022-10-09T14:04:11.085Z,80.58
2022-10-09T14:05:10.995Z,79.91
2022-10-09T14:06:10.905Z,80.24
2022-10-09T14:07:10.834Z,80.15
2022-10-09T14:08:10.763Z,79.86
2022-10-09T14:09:10.690Z,79.71
2022-10-09T14:10:10.617Z,79.61
2022-10-09T14:11:10.544Z,80.09
2022-10-09T14:12:10.471Z,79.19
2022-10-09T14:13:10.413Z,79.86
2022-10-09T14:14:11.126Z,79.96
2022-10-09T14:15:10.254Z,80.15
2022-10-09T14:16:10.182Z,79.22
2022-10-09T14:17:10.110Z,78.34
2022-10-09T14:18:10.034Z,77.61
2022-10-09T14:19:09.964Z,75.31
2022-10-09T14:20:10.040Z,74.44
2022-10-09T14:21:14.036Z,74.79
2022-10-09T14:22:09.746Z,75.69
2022-10-09T14:23:09.678Z,75.73
2022-10-09T14:24:09.605Z,73.94
2022-10-09T14:25:09.533Z,73.46
2022-10-09T14:26:12.084Z,71.53
2022-10-09T14:27:09.391Z,72.65
2022-10-09T14:28:51.949Z,71.91
2022-10-09T14:29:54.145Z,72.63
2022-10-09T14:30:51.670Z,71.66
2022-10-09T14:31:51.602Z,71.37
2022-10-09T14:32:52.009Z,70.70
2022-10-09T14:33:51.460Z,72.07
2022-10-09T14:34:51.391Z,71.94
2022-10-09T14:35:51.320Z,73.35
2022-10-09T14:36:51.269Z,74.08
2022-10-09T14:37:51.180Z,76.25
2022-10-09T14:38:51.112Z,77.46
2022-10-09T14:39:51.039Z,78.03
2022-10-09T14:40:50.972Z,78.32
2022-10-09T14:41:50.900Z,80.40
2022-10-09T14:42:51.182Z,79.14
2022-10-09T14:43:50.756Z,80.78
2022-10-09T14:44:50.939Z,81.64
2022-10-09T14:45:50.615Z,82.31
2022-10-09T14:46:50.544Z,81.07
2022-10-09T14:47:50.474Z,80.01
2022-10-09T14:48:50.403Z,80.20
2022-10-09T14:49:50.330Z,81.35
2022-10-09T14:50:50.258Z,80.45
2022-10-09T14:51:50.187Z,80.26
2022-10-09T14:52:50.414Z,81.02
2022-10-09T14:53:50.042Z,82.18
2022-10-09T14:54:49.970Z,82.46
2022-10-09T14:55:49.896Z,81.70
2022-10-09T14:56:49.827Z,82.08
2022-10-09T14:57:49.750Z,81.22
2022-10-09T14:58:49.680Z,81.60
2022-10-09T14:59:49.604Z,82.37
2022-10-09T15:00:49.529Z,82.08
2022-10-09T15:01:49.455Z,83.61
2022-10-09T15:02:49.389Z,83.04
2022-10-09T15:03:49.377Z,83.38
2022-10-09T15:04:49.236Z,82.71
2022-10-09T15:05:49.413Z,82.52
2022-10-09T15:06:49.138Z,82.46
2022-10-09T15:07:49.368Z,82.56
2022-10-09T15:08:48.957Z,82.65
2022-10-09T15:10:49.033Z,83.29
2022-10-09T15:12:48.642Z,83.19
2022-10-09T15:13:48.803Z,82.62
2022-10-09T15:14:51.113Z,82.71
2022-10-09T15:15:51.845Z,84.25
2022-10-09T15:16:48.361Z,84.63
2022-10-09T15:17:48.561Z,85.49
2022-10-09T15:18:48.193Z,83.38
2022-10-09T15:19:48.119Z,84.53
2022-10-09T15:20:48.043Z,83.48
2022-10-09T15:21:48.216Z,83.38
2022-10-09T15:22:47.892Z,83.95
2022-10-09T15:23:47.815Z,83.48
2022-10-09T15:24:47.761Z,83.86
2022-10-09T15:26:40.158Z,84.20
2022-10-09T15:27:40.182Z,83.44
2022-10-09T15:28:40.100Z,84.68
2022-10-09T15:29:39.930Z,84.30
2022-10-09T15:30:39.854Z,82.38
2022-10-09T15:31:39.794Z,83.53
2022-10-09T15:32:39.703Z,82.19
2022-10-09T15:33:39.630Z,82.38
2022-10-09T15:34:41.126Z,82.67
2022-10-09T15:35:39.476Z,83.44
2022-10-09T15:36:39.402Z,83.63
2022-10-09T15:37:39.350Z,84.49
2022-10-09T15:38:39.250Z,84.30
2022-10-09T15:39:39.172Z,84.58
2022-10-09T16:09:54.920Z,99.99
2022-10-09T16:10:54.626Z,99.99
2022-10-09T16:11:54.548Z,99.99
2022-10-09T16:12:54.469Z,99.99
2022-10-09T16:13:54.661Z,99.99
2022-10-09T16:14:54.316Z,99.99
2022-10-09T16:15:54.277Z,99.99
2022-10-09T16:16:54.502Z,99.99
2022-10-09T16:17:54.127Z,99.99
2022-10-09T16:18:54.047Z,99.99
2022-10-09T16:19:54.273Z,99.99
2022-10-09T16:20:53.851Z,99.99
2022-10-09T16:21:53.813Z,99.99
2022-10-09T16:22:53.950Z,99.99
2022-10-09T16:23:58.373Z,99.99
2022-10-09T16:24:53.544Z,99.99
2022-10-09T16:25:54.216Z,99.99
2022-10-09T16:26:53.423Z,99.99
2022-10-09T16:27:53.349Z,99.99
2022-10-09T16:28:53.575Z,99.99
2022-10-09T16:29:53.359Z,99.99
2022-10-09T16:33:52.882Z,99.99
2022-10-09T16:35:52.727Z,99.99
2022-10-09T16:36:52.649Z,99.99
2022-10-09T16:37:52.771Z,99.99
2022-10-09T16:38:52.493Z,99.99
2022-10-09T16:39:52.820Z,99.99
2022-10-09T16:41:08.117Z,99.99
2022-10-09T16:41:52.242Z,99.99
2022-10-09T16:44:52.023Z,99.99
2022-10-09T16:45:51.910Z,99.99
2022-10-09T16:46:51.834Z,99.99
2022-10-09T16:47:52.182Z,99.99
2022-10-09T16:48:52.220Z,99.99
2022-10-09T16:50:51.554Z,99.99
2022-10-09T16:51:51.477Z,99.99
2022-10-09T16:52:51.361Z,99.99
2022-10-09T16:53:51.287Z,99.99
2022-10-09T16:54:51.201Z,99.99
2022-10-09T16:55:51.124Z,99.99
2022-10-09T16:56:51.046Z,99.99
2022-10-09T16:57:51.284Z,99.99
2022-10-09T16:58:50.888Z,99.99
2022-10-09T16:59:50.810Z,99.99
2022-10-09T17:00:50.806Z,99.99
2022-10-09T17:01:50.696Z,99.99
2022-10-09T17:02:50.572Z,99.99
2022-10-09T17:03:50.497Z,99.99
2022-10-09T17:04:50.415Z,99.99
2022-10-09T17:05:50.335Z,99.99
2022-10-09T17:06:50.257Z,99.99
2022-10-09T17:07:50.568Z,99.99
2022-10-09T17:08:50.097Z,99.99
2022-10-09T17:09:50.020Z,99.99
2022-10-09T17:10:49.939Z,99.99
2022-10-09T17:11:49.916Z,99.99
2022-10-09T17:12:49.780Z,99.99
2022-10-09T17:13:49.721Z,99.99
2022-10-09T17:14:49.620Z,99.99
2022-10-09T17:15:49.543Z,99.99
2022-10-09T17:16:49.465Z,99.99
2022-10-09T17:17:49.742Z,99.99
2022-10-09T17:18:49.304Z,99.99
2022-10-09T17:20:49.146Z,99.99
2022-10-09T17:21:49.064Z,99.99
2022-10-09T17:22:49.235Z,99.99
2022-10-09T17:23:48.905Z,99.99
2022-10-09T17:24:48.862Z,99.99
2022-10-09T17:25:48.746Z,99.99
2022-10-09T17:28:05.596Z,99.99
2022-10-09T17:29:01.102Z,99.99
2022-10-09T17:30:01.010Z,99.99
2022-10-09T17:31:00.939Z,99.99
2022-10-09T17:32:00.846Z,99.99
2022-10-09T17:33:00.763Z,99.99
2022-10-09T17:34:00.683Z,99.99
2022-10-09T17:35:00.603Z,99.99
2022-10-09T17:36:00.522Z,99.99
2022-10-09T17:37:00.443Z,99.99
2022-10-09T17:38:00.514Z,99.99
2022-10-09T17:39:00.282Z,99.99
2022-10-09T17:40:00.203Z,99.99
2022-10-09T17:41:00.124Z,99.99
2022-10-09T17:42:00.046Z,99.99
2022-10-09T17:42:59.962Z,99.99
2022-10-09T17:43:59.883Z,99.99
2022-10-09T17:44:59.820Z,99.99
2022-10-09T17:45:59.723Z,99.99
2022-10-09T17:46:59.640Z,99.99
2022-10-09T17:47:59.560Z,99.99
2022-10-09T17:48:59.714Z,99.99
2022-10-09T17:49:59.401Z,99.99
2022-10-09T17:51:01.944Z,99.99
2022-10-09T17:51:59.239Z,99.99
2022-10-09T17:52:59.157Z,99.99
2022-10-09T17:54:58.997Z,99.99
2022-10-09T17:55:58.916Z,99.99